Time;durP1;ratioP1;P1;durP2;ratioP2;P2;SDS_P1;SDS_P2;PMS_P1;PMS_P2;Temp;Humidity;BMP_temperature;BMP_pressure;BME280_temperature;BME280_humidity;BME280_pressure;Samples;Min_cycle;Max_cycle;Signal;HPM_P1;HPM_P2
2023/09/01 00:02:25;;;;;;;4.80;2.77;;;15.50;99.90;;;;;;6128014;23;20136;-73
2023/09/01 00:05:02;;;;;;;3.30;2.53;;;15.50;99.90;;;;;;6128557;23;20152;-74
2023/09/01 00:07:28;;;;;;;4.40;2.30;;;15.50;99.90;;;;;;6127913;23;20360;-73
2023/09/01 00:09:54;;;;;;;4.50;2.20;;;15.50;99.90;;;;;;6128234;23;20622;-74
2023/09/01 00:12:19;;;;;;;3.17;2.10;;;15.50;99.90;;;;;;6128313;23;20145;-74
2023/09/01 00:14:45;;;;;;;2.73;2.20;;;15.40;99.90;;;;;;6129562;23;20163;-75
2023/09/01 00:17:12;;;;;;;4.30;3.00;;;15.30;99.90;;;;;;6128282;23;20137;-72
2023/09/01 00:19:38;;;;;;;2.87;2.33;;;15.30;99.90;;;;;;6127982;23;20136;-72
2023/09/01 00:22:05;;;;;;;2.80;1.93;;;15.20;99.90;;;;;;6127975;23;20356;-74
2023/09/01 00:24:32;;;;;;;3.10;2.27;;;15.10;99.90;;;;;;6128522;23;20852;-73
2023/09/01 00:26:58;;;;;;;3.43;2.47;;;15.00;99.90;;;;;;6127861;23;20423;-74
2023/09/01 00:29:24;;;;;;;3.70;2.40;;;14.90;99.90;;;;;;6129685;23;20459;-74
2023/09/01 00:31:50;;;;;;;4.03;2.43;;;14.90;99.90;;;;;;6129400;23;20367;-74
2023/09/01 00:34:16;;;;;;;6.57;2.90;;;14.80;99.90;;;;;;6130221;23;20136;-74
2023/09/01 00:36:41;;;;;;;2.90;2.27;;;14.80;99.90;;;;;;6129932;23;20446;-73
2023/09/01 00:39:08;;;;;;;6.83;2.50;;;14.80;99.90;;;;;;6130017;23;20133;-73
2023/09/01 00:41:34;;;;;;;4.37;2.30;;;14.70;99.90;;;;;;6129654;23;20227;-73
2023/09/01 00:44:00;;;;;;;3.47;2.10;;;14.80;99.90;;;;;;6129934;23;20407;-73
2023/09/01 00:46:26;;;;;;;3.53;2.17;;;14.80;99.90;;;;;;6129868;23;20692;-73
2023/09/01 00:48:52;;;;;;;3.23;2.10;;;14.80;99.90;;;;;;6129453;23;20195;-73
2023/09/01 00:51:18;;;;;;;2.00;1.77;;;14.80;99.90;;;;;;6130078;23;20399;-72
2023/09/01 00:53:43;;;;;;;2.73;1.70;;;14.90;99.90;;;;;;6128287;23;20383;-73
2023/09/01 00:56:09;;;;;;;3.70;2.40;;;14.90;99.90;;;;;;6129777;23;20141;-73
2023/09/01 00:58:35;;;;;;;3.63;2.40;;;14.90;99.90;;;;;;6128321;23;20160;-72
2023/09/01 01:01:04;;;;;;;3.30;2.23;;;15.00;99.90;;;;;;6104376;23;20168;-73
2023/09/01 01:03:33;;;;;;;2.70;2.30;;;15.00;99.90;;;;;;6104162;23;20250;-73
2023/09/01 01:06:34;;;;;;;3.77;2.33;;;15.10;99.90;;;;;;6129716;23;20356;-74
2023/09/01 01:09:21;;;;;;;3.90;2.53;;;15.20;99.90;;;;;;6104216;23;20645;-73
2023/09/01 01:11:50;;;;;;;3.53;2.87;;;15.20;99.90;;;;;;6103561;23;20958;-74
2023/09/01 01:14:25;;;;;;;3.93;2.57;;;15.30;99.90;;;;;;6104008;23;20434;-73
2023/09/01 01:16:52;;;;;;;3.20;2.73;;;15.30;99.90;;;;;;6104306;23;20687;-72
2023/09/01 01:19:41;;;;;;;4.57;2.70;;;15.30;99.90;;;;;;6127800;23;20693;-74
2023/09/01 01:22:07;;;;;;;10.07;3.50;;;15.40;99.90;;;;;;6103626;23;20515;-73
2023/09/01 01:24:34;;;;;;;5.47;3.07;;;15.30;99.90;;;;;;6130267;23;20865;-74
2023/09/01 01:27:00;;;;;;;3.87;2.63;;;15.40;99.90;;;;;;6129081;23;20188;-73
2023/09/01 01:29:26;;;;;;;5.10;3.40;;;15.40;99.90;;;;;;6127886;23;20467;-74
2023/09/01 01:31:53;;;;;;;5.63;3.10;;;15.40;99.90;;;;;;6127782;23;20140;-73
2023/09/01 01:34:29;;;;;;;5.23;2.60;;;15.40;99.90;;;;;;6102278;23;20148;-72
2023/09/01 01:37:04;;;;;;;6.03;2.90;;;15.40;99.90;;;;;;6128373;23;20922;-73
2023/09/01 01:39:33;;;;;;;5.10;3.33;;;15.40;99.90;;;;;;6127432;23;20625;-74
2023/09/01 01:42:07;;;;;;;4.87;3.97;;;15.40;99.90;;;;;;6102372;23;20451;-74
2023/09/01 01:44:46;;;;;;;10.50;3.67;;;15.40;99.90;;;;;;6102359;23;20416;-74
2023/09/01 01:47:12;;;;;;;5.10;3.03;;;15.40;99.90;;;;;;6127998;23;20363;-74
2023/09/01 01:49:38;;;;;;;5.53;2.97;;;15.40;99.90;;;;;;6127778;23;20353;-74
2023/09/01 01:52:04;;;;;;;4.37;3.03;;;15.40;99.90;;;;;;6126242;23;20810;-73
2023/09/01 01:54:31;;;;;;;6.87;3.27;;;15.40;99.90;;;;;;6128732;23;20360;-72
2023/09/01 01:56:57;;;;;;;6.50;3.97;;;15.40;99.90;;;;;;6129070;23;20222;-72
2023/09/01 01:59:22;;;;;;;5.03;3.20;;;15.40;99.90;;;;;;6101833;23;20467;-73
2023/09/01 02:01:48;;;;;;;4.27;2.47;;;15.30;99.90;;;;;;6102211;23;20198;-72
2023/09/01 02:04:14;;;;;;;3.13;2.57;;;15.30;99.90;;;;;;6127624;23;20436;-71
2023/09/01 02:06:40;;;;;;;3.93;3.40;;;15.30;99.90;;;;;;6133585;23;20465;-73
2023/09/01 02:09:09;;;;;;;4.60;3.37;;;15.30;99.90;;;;;;6126028;23;20148;-72
2023/09/01 02:11:38;;;;;;;7.23;3.67;;;15.30;99.90;;;;;;6127352;23;20234;-73
2023/09/01 02:14:05;;;;;;;8.20;4.00;;;15.30;99.90;;;;;;6102218;23;20584;-73
2023/09/01 02:16:31;;;;;;;3.97;2.90;;;15.30;99.90;;;;;;6101946;23;20535;-72
2023/09/01 02:18:58;;;;;;;4.23;2.90;;;15.20;99.90;;;;;;6102076;23;20371;-73
2023/09/01 02:21:24;;;;;;;3.67;2.90;;;15.20;99.90;;;;;;6127686;23;20428;-74
2023/09/01 02:23:50;;;;;;;6.13;3.23;;;15.20;99.90;;;;;;6126330;23;20465;-73
2023/09/01 02:26:19;;;;;;;3.70;3.15;;;15.20;99.90;;;;;;6058876;23;1018773;-73
2023/09/01 02:28:45;;;;;;;4.40;3.03;;;15.20;99.90;;;;;;6102465;23;20494;-72
2023/09/01 02:31:10;;;;;;;4.43;2.83;;;15.20;99.90;;;;;;6129493;23;20406;-74
2023/09/01 02:33:36;;;;;;;3.67;2.70;;;15.20;99.90;;;;;;6128731;23;20406;-73
2023/09/01 02:36:21;;;;;;;3.60;2.77;;;15.20;99.90;;;;;;6129254;23;20168;-73
2023/09/01 02:38:47;;;;;;;3.57;2.90;;;15.20;99.90;;;;;;6102067;23;20238;-73
2023/09/01 02:41:13;;;;;;;3.63;2.70;;;15.20;99.90;;;;;;6129048;23;20418;-73
2023/09/01 02:43:38;;;;;;;3.70;2.47;;;15.20;99.90;;;;;;6128938;23;20506;-73
2023/09/01 02:46:04;;;;;;;5.47;3.03;;;15.10;99.90;;;;;;6128641;23;20135;-72
2023/09/01 02:48:30;;;;;;;5.30;2.80;;;15.10;99.90;;;;;;6128621;23;20159;-73
2023/09/01 02:50:56;;;;;;;2.70;2.50;;;15.20;99.90;;;;;;6102246;23;20404;-72
2023/09/01 02:53:21;;;;;;;4.40;2.97;;;15.10;99.90;;;;;;6128575;23;20147;-72
2023/09/01 02:55:47;;;;;;;5.20;2.90;;;15.10;99.90;;;;;;6127946;23;20152;-75
2023/09/01 02:58:12;;;;;;;4.50;2.93;;;15.10;99.90;;;;;;6128802;23;20175;-73
2023/09/01 03:00:38;;;;;;;3.90;3.30;;;15.10;99.90;;;;;;6126402;23;20234;-73
2023/09/01 03:03:04;;;;;;;4.80;3.77;;;15.10;99.90;;;;;;6103033;23;20573;-74
2023/09/01 03:05:29;;;;;;;5.57;3.47;;;15.10;99.90;;;;;;6103486;23;20144;-72
2023/09/01 03:07:57;;;;;;;6.80;3.80;;;15.00;99.90;;;;;;6128477;23;20418;-74
2023/09/01 03:10:23;;;;;;;3.30;3.00;;;14.90;99.90;;;;;;6101741;23;20438;-73
2023/09/01 03:12:49;;;;;;;5.03;3.90;;;14.90;99.90;;;;;;6102299;23;20750;-72
2023/09/01 03:15:15;;;;;;;7.07;4.03;;;14.80;99.90;;;;;;6126936;23;20376;-72
2023/09/01 03:17:41;;;;;;;4.13;3.47;;;14.80;99.90;;;;;;6128192;23;20375;-73
2023/09/01 03:20:10;;;;;;;7.10;3.40;;;14.80;99.90;;;;;;6102590;23;20425;-74
2023/09/01 03:22:37;;;;;;;7.13;4.37;;;14.70;99.90;;;;;;6129226;23;20411;-71
2023/09/01 03:25:03;;;;;;;7.60;3.70;;;14.70;99.90;;;;;;6129359;23;20387;-73
2023/09/01 03:27:30;;;;;;;4.63;4.00;;;14.60;99.90;;;;;;6127355;23;20427;-72
2023/09/01 03:29:55;;;;;;;6.60;4.70;;;14.60;99.90;;;;;;6103381;23;20164;-72
2023/09/01 03:32:24;;;;;;;6.30;5.43;;;14.60;99.90;;;;;;6102097;23;20708;-72
2023/09/01 03:34:50;;;;;;;8.53;4.20;;;14.50;99.90;;;;;;6128299;23;20383;-72
2023/09/01 03:37:16;;;;;;;6.30;4.93;;;14.50;99.90;;;;;;6102842;23;20140;-72
2023/09/01 03:39:41;;;;;;;5.87;5.20;;;14.50;99.90;;;;;;6102470;23;20453;-72
2023/09/01 03:42:07;;;;;;;9.03;4.37;;;14.50;99.90;;;;;;6102277;23;20517;-73
2023/09/01 03:44:32;;;;;;;6.20;4.93;;;14.50;99.90;;;;;;6103164;23;20183;-72
2023/09/01 03:46:58;;;;;;;5.80;4.67;;;14.50;99.90;;;;;;6127662;23;20147;-74
2023/09/01 03:49:26;;;;;;;5.53;4.40;;;14.50;99.90;;;;;;6100927;23;20202;-72
2023/09/01 03:51:52;;;;;;;6.93;4.47;;;14.60;99.90;;;;;;6102090;23;20167;-73
2023/09/01 03:54:17;;;;;;;7.83;4.80;;;14.60;99.90;;;;;;6138299;23;20360;-73
2023/09/01 03:56:43;;;;;;;6.87;4.37;;;14.60;99.90;;;;;;6140080;23;20184;-73
2023/09/01 03:59:08;;;;;;;4.70;4.20;;;14.60;99.90;;;;;;6134473;23;20137;-73
2023/09/01 04:01:35;;;;;;;8.60;4.40;;;14.60;99.90;;;;;;6129641;23;20481;-73
2023/09/01 04:04:01;;;;;;;5.70;4.43;;;14.70;99.90;;;;;;6127547;23;20400;-73
2023/09/01 04:06:27;;;;;;;7.50;4.80;;;14.70;99.90;;;;;;6101585;23;20143;-73
2023/09/01 04:08:52;;;;;;;6.27;4.60;;;14.70;99.90;;;;;;6127809;23;20783;-73
2023/09/01 04:11:18;;;;;;;3.80;3.40;;;14.70;99.90;;;;;;6127633;23;20557;-74
2023/09/01 04:13:44;;;;;;;6.60;4.13;;;14.70;99.90;;;;;;6126035;23;20230;-73
2023/09/01 04:16:09;;;;;;;4.97;4.07;;;14.70;99.90;;;;;;6125794;23;20152;-73
2023/09/01 04:18:35;;;;;;;10.00;5.00;;;14.80;99.90;;;;;;6126185;23;20160;-72
2023/09/01 04:21:02;;;;;;;7.20;4.23;;;14.80;99.90;;;;;;6125771;23;20426;-73
2023/09/01 04:23:28;;;;;;;6.50;4.90;;;14.80;99.90;;;;;;6134047;23;20163;-73
2023/09/01 04:25:54;;;;;;;6.63;4.20;;;14.80;99.90;;;;;;6109002;23;20446;-73
2023/09/01 04:28:24;;;;;;;5.57;4.10;;;14.80;99.90;;;;;;6089696;23;20368;-72
2023/09/01 04:30:50;;;;;;;4.40;3.63;;;14.80;99.90;;;;;;6111888;23;20392;-74
2023/09/01 04:33:17;;;;;;;6.27;4.20;;;14.90;99.90;;;;;;6132705;23;20395;-74
2023/09/01 04:35:43;;;;;;;7.07;4.27;;;14.90;99.90;;;;;;6105431;23;20376;-74
2023/09/01 04:38:09;;;;;;;4.53;4.13;;;14.90;99.90;;;;;;6127842;23;20375;-75
2023/09/01 04:40:35;;;;;;;5.63;3.63;;;14.90;99.90;;;;;;6126499;23;20844;-73
2023/09/01 04:43:00;;;;;;;7.77;4.40;;;14.90;99.90;;;;;;6102028;23;20180;-75
2023/09/01 04:45:26;;;;;;;8.33;3.97;;;14.90;99.90;;;;;;6101857;23;20433;-75
2023/09/01 04:47:52;;;;;;;5.63;3.93;;;14.90;99.90;;;;;;6102395;23;20137;-74
2023/09/01 04:50:18;;;;;;;7.70;3.87;;;14.90;99.90;;;;;;6101480;23;20310;-75
2023/09/01 04:52:44;;;;;;;4.63;4.07;;;15.00;99.90;;;;;;6102745;23;20150;-74
2023/09/01 04:55:10;;;;;;;6.13;3.90;;;15.00;99.90;;;;;;6126665;23;20423;-74
2023/09/01 04:57:36;;;;;;;4.93;3.70;;;15.00;99.90;;;;;;6102119;23;20447;-72
2023/09/01 05:00:04;;;;;;;5.13;3.80;;;15.00;99.90;;;;;;6127777;23;20384;-74
2023/09/01 05:02:30;;;;;;;5.47;4.27;;;15.00;99.90;;;;;;6109005;23;20150;-75
2023/09/01 05:04:56;;;;;;;5.07;4.33;;;15.00;99.90;;;;;;6138653;23;20408;-74
2023/09/01 05:07:21;;;;;;;4.67;4.07;;;15.00;99.90;;;;;;6084196;23;20151;-72
2023/09/01 05:09:47;;;;;;;4.57;4.17;;;15.00;99.90;;;;;;6110273;23;20164;-76
2023/09/01 05:12:13;;;;;;;4.50;3.70;;;15.00;99.90;;;;;;6111730;23;20267;-75
2023/09/01 05:14:39;;;;;;;7.60;3.67;;;15.10;99.90;;;;;;6110858;23;20384;-72
2023/09/01 05:17:04;;;;;;;4.37;3.97;;;15.10;99.90;;;;;;6088552;23;20160;-75
2023/09/01 05:19:31;;;;;;;5.00;3.90;;;15.10;99.90;;;;;;6089985;23;20152;-73
2023/09/01 05:21:56;;;;;;;6.87;4.47;;;15.20;99.90;;;;;;6141834;23;20152;-75
2023/09/01 05:24:22;;;;;;;7.00;4.20;;;15.20;99.90;;;;;;6138712;23;20504;-75
2023/09/01 05:26:48;;;;;;;8.73;3.97;;;15.30;99.90;;;;;;6096129;23;20463;-74
2023/09/01 05:29:14;;;;;;;6.50;4.30;;;15.30;99.90;;;;;;6082489;23;20381;-76
2023/09/01 05:31:40;;;;;;;4.50;3.67;;;15.30;99.90;;;;;;6059802;23;20168;-75
2023/09/01 05:34:06;;;;;;;6.47;3.70;;;15.40;99.90;;;;;;6083029;23;20152;-75
2023/09/01 05:36:32;;;;;;;5.40;4.07;;;15.40;99.90;;;;;;6083459;23;20149;-75
2023/09/01 05:38:58;;;;;;;7.47;4.50;;;15.40;99.90;;;;;;6083700;23;20373;-76
2023/09/01 05:41:23;;;;;;;6.80;4.50;;;15.50;99.90;;;;;;6110357;23;20184;-78
2023/09/01 05:43:49;;;;;;;5.17;3.50;;;15.50;99.90;;;;;;6082746;23;20230;-76
2023/09/01 05:46:15;;;;;;;4.63;3.57;;;15.50;99.90;;;;;;6062514;23;20393;-75
2023/09/01 05:48:40;;;;;;;7.53;4.83;;;15.50;99.90;;;;;;6083995;23;20153;-76
2023/09/01 05:51:06;;;;;;;5.50;3.43;;;15.50;99.90;;;;;;6084367;23;20168;-76
2023/09/01 05:53:32;;;;;;;6.37;4.10;;;15.60;99.90;;;;;;6109519;23;20514;-76
2023/09/01 05:55:58;;;;;;;5.77;4.07;;;15.60;99.90;;;;;;6082052;23;20153;-75
2023/09/01 05:58:24;;;;;;;7.30;4.57;;;15.70;99.90;;;;;;6109590;23;20398;-74
2023/09/01 06:00:49;;;;;;;9.40;4.07;;;15.70;99.90;;;;;;6108355;23;20227;-75
2023/09/01 06:03:15;;;;;;;6.10;3.80;;;15.80;99.90;;;;;;6084842;23;20550;-75
2023/09/01 06:05:40;;;;;;;6.13;3.67;;;15.80;99.90;;;;;;6084858;23;20141;-76
2023/09/01 06:08:06;;;;;;;6.27;3.93;;;15.80;99.90;;;;;;6062027;23;20180;-77
2023/09/01 06:10:32;;;;;;;3.93;3.47;;;15.90;99.90;;;;;;6118420;23;20165;-77
2023/09/01 06:12:57;;;;;;;2.80;2.60;;;15.90;99.90;;;;;;6062557;23;20182;-73
2023/09/01 06:15:23;;;;;;;6.53;3.80;;;16.00;99.90;;;;;;6112703;23;20208;-78
2023/09/01 06:17:49;;;;;;;5.10;3.43;;;16.10;99.90;;;;;;6085530;23;20147;-75
2023/09/01 06:20:14;;;;;;;5.30;3.37;;;16.10;99.90;;;;;;6083859;23;20547;-75
2023/09/01 06:22:40;;;;;;;5.13;3.83;;;16.20;99.90;;;;;;6063692;23;20175;-75
2023/09/01 06:25:06;;;;;;;4.20;2.80;;;16.30;99.90;;;;;;6059268;23;20207;-75
2023/09/01 06:27:37;;;;;;;5.63;3.17;;;16.40;99.90;;;;;;6134016;23;20199;-74
2023/09/01 06:30:04;;;;;;;5.93;3.43;;;16.50;99.90;;;;;;6111604;23;20387;-74
2023/09/01 06:32:30;;;;;;;3.80;3.07;;;16.60;99.90;;;;;;6137070;23;20374;-77
2023/09/01 06:34:56;;;;;;;3.77;3.30;;;16.70;99.90;;;;;;6114075;23;20369;-73
2023/09/01 06:37:21;;;;;;;7.43;3.20;;;16.80;99.90;;;;;;6141320;23;20128;-77
2023/09/01 06:39:47;;;;;;;3.27;2.97;;;16.80;99.90;;;;;;6114365;23;20242;-77
2023/09/01 06:42:13;;;;;;;5.70;3.37;;;16.90;99.90;;;;;;6113967;23;20216;-77
2023/09/01 06:44:38;;;;;;;3.47;2.90;;;17.00;99.90;;;;;;6114041;23;20160;-76
2023/09/01 06:47:04;;;;;;;3.83;3.10;;;17.00;99.90;;;;;;6140739;23;20484;-75
2023/09/01 06:49:29;;;;;;;4.17;2.90;;;17.10;99.90;;;;;;6138207;23;20209;-74
2023/09/01 06:51:58;;;;;;;2.83;2.10;;;17.20;99.90;;;;;;6140342;23;20147;-77
2023/09/01 06:54:23;;;;;;;2.87;2.60;;;17.20;99.90;;;;;;6092749;23;20158;-76
2023/09/01 06:56:49;;;;;;;4.23;2.57;;;17.20;99.90;;;;;;6114348;23;20388;-75
2023/09/01 06:59:15;;;;;;;4.67;2.13;;;17.20;99.90;;;;;;6143189;23;20145;-77
2023/09/01 07:01:40;;;;;;;3.90;2.20;;;17.10;99.90;;;;;;6095738;23;20180;-74
2023/09/01 07:04:07;;;;;;;3.73;3.37;;;16.90;99.90;;;;;;6088073;23;20539;-75
2023/09/01 07:06:32;;;;;;;3.10;2.50;;;16.70;99.90;;;;;;6115027;23;20153;-74
2023/09/01 07:08:58;;;;;;;3.77;2.73;;;16.50;99.90;;;;;;6086816;23;20375;-76
2023/09/01 07:11:24;;;;;;;4.07;3.10;;;16.40;99.90;;;;;;6112005;23;20167;-74
2023/09/01 07:13:50;;;;;;;4.93;2.80;;;16.40;99.90;;;;;;6137979;23;20179;-75
2023/09/01 07:16:17;;;;;;;3.20;2.57;;;16.30;99.90;;;;;;6138136;23;20415;-76
2023/09/01 07:18:43;;;;;;;6.17;2.80;;;16.30;99.90;;;;;;6063532;23;20178;-76
2023/09/01 07:21:08;;;;;;;3.03;2.80;;;16.30;99.90;;;;;;6086375;23;20551;-74
2023/09/01 07:23:37;;;;;;;4.53;2.70;;;16.30;99.90;;;;;;6135077;23;20187;-76
2023/09/01 07:26:03;;;;;;;4.27;2.60;;;16.30;99.90;;;;;;6138209;23;20220;-76
2023/09/01 07:28:29;;;;;;;5.40;2.80;;;16.30;99.90;;;;;;6114725;23;20394;-76
2023/09/01 07:30:55;;;;;;;2.97;2.67;;;16.30;99.90;;;;;;6113145;23;20396;-77
2023/09/01 07:33:21;;;;;;;5.90;2.83;;;16.30;99.90;;;;;;6111483;23;20402;-78
2023/09/01 07:35:50;;;;;;;3.27;2.97;;;16.30;99.90;;;;;;6088936;23;20148;-76
2023/09/01 07:38:20;;;;;;;2.80;2.50;;;16.30;99.90;;;;;;6112489;23;20148;-77
2023/09/01 07:40:49;;;;;;;3.90;2.90;;;16.20;99.90;;;;;;6114384;23;20424;-74
2023/09/01 07:43:18;;;;;;;4.50;2.50;;;16.20;99.90;;;;;;6139690;23;20414;-77
2023/09/01 07:45:43;;;;;;;3.50;3.20;;;16.20;99.90;;;;;;6139311;23;20361;-76
2023/09/01 07:48:10;;;;;;;3.70;3.17;;;16.20;99.90;;;;;;6092842;23;20378;-76
2023/09/01 07:50:36;;;;;;;5.00;3.40;;;16.20;99.90;;;;;;6118629;23;20162;-77
2023/09/01 07:53:02;;;;;;;3.33;2.87;;;16.10;99.90;;;;;;6094992;23;20384;-76
2023/09/01 07:55:28;;;;;;;3.40;2.50;;;16.10;99.90;;;;;;6118491;23;20864;-78
2023/09/01 07:57:57;;;;;;;3.10;2.40;;;16.00;99.90;;;;;;6095189;23;20377;-79
2023/09/01 08:00:23;;;;;;;3.97;2.53;;;16.00;99.90;;;;;;6115633;23;20176;-75
2023/09/01 08:02:49;;;;;;;3.43;2.40;;;15.90;99.90;;;;;;6114636;23;20381;-76
2023/09/01 08:05:14;;;;;;;4.53;3.70;;;15.90;99.90;;;;;;6092008;23;20220;-76
2023/09/01 08:07:40;;;;;;;3.47;2.77;;;15.80;99.90;;;;;;6113594;23;20654;-77
2023/09/01 08:10:10;;;;;;;5.23;2.73;;;15.80;99.90;;;;;;6090514;23;20168;-78
2023/09/01 08:12:38;;;;;;;3.57;2.77;;;15.70;99.90;;;;;;6115395;23;20537;-76
2023/09/01 08:15:04;;;;;;;3.77;2.70;;;15.70;99.90;;;;;;6090368;23;20364;-77
2023/09/01 08:17:32;;;;;;;2.70;2.37;;;15.60;99.90;;;;;;6140421;23;20201;-76
2023/09/01 08:19:57;;;;;;;3.10;2.70;;;15.60;99.90;;;;;;6091414;23;20401;-75
2023/09/01 08:22:23;;;;;;;3.07;2.77;;;15.60;99.90;;;;;;6089952;23;20381;-77
2023/09/01 08:24:49;;;;;;;3.90;2.70;;;15.60;99.90;;;;;;6138185;23;20577;-77
2023/09/01 08:27:15;;;;;;;4.13;3.20;;;15.50;99.90;;;;;;6139515;23;20192;-75
2023/09/01 08:29:41;;;;;;;3.10;2.80;;;15.50;99.90;;;;;;6141971;23;20152;-78
2023/09/01 08:32:12;;;;;;;8.23;4.27;;;15.50;99.90;;;;;;6112863;23;20148;-76
2023/09/01 08:34:38;;;;;;;4.13;3.70;;;15.60;99.90;;;;;;6140112;23;20371;-75
2023/09/01 08:37:04;;;;;;;3.57;3.27;;;15.60;99.90;;;;;;6114674;23;20368;-75
2023/09/01 08:39:31;;;;;;;3.83;2.83;;;15.60;99.90;;;;;;6144806;23;20379;-78
2023/09/01 08:41:57;;;;;;;2.80;2.50;;;15.70;99.90;;;;;;6116477;23;20387;-79
2023/09/01 08:44:24;;;;;;;4.00;2.50;;;15.70;99.90;;;;;;6112357;23;20415;-77
2023/09/01 08:46:55;;;;;;;2.20;2.00;;;15.70;99.90;;;;;;6112577;23;20148;-76
2023/09/01 08:49:23;;;;;;;2.20;1.83;;;15.70;99.90;;;;;;6118309;23;20377;-74
2023/09/01 08:51:52;;;;;;;2.03;1.60;;;15.70;99.90;;;;;;6088979;23;20377;-75
2023/09/01 08:54:18;;;;;;;2.53;1.67;;;15.70;99.90;;;;;;6090486;23;20685;-77
2023/09/01 08:56:44;;;;;;;2.00;1.80;;;15.80;99.90;;;;;;6116009;23;20733;-76
2023/09/01 08:59:10;;;;;;;1.60;1.50;;;15.80;99.90;;;;;;6090290;23;20376;-79
2023/09/01 09:01:37;;;;;;;2.20;2.00;;;15.80;99.90;;;;;;6118481;23;20172;-79
2023/09/01 09:04:06;;;;;;;2.30;1.50;;;15.80;99.90;;;;;;6120138;23;20168;-78
2023/09/01 09:06:37;;;;;;;1.53;1.43;;;15.80;99.90;;;;;;6119301;23;20375;-77
2023/09/01 09:09:11;;;;;;;1.53;1.20;;;15.90;99.90;;;;;;6120505;23;20368;-78
2023/09/01 09:11:38;;;;;;;1.20;1.10;;;15.90;99.90;;;;;;6121085;23;20401;-78
2023/09/01 09:14:04;;;;;;;1.53;1.30;;;16.00;99.90;;;;;;6118654;23;20438;-76
2023/09/01 09:16:29;;;;;;;1.63;1.50;;;16.10;99.90;;;;;;6091454;23;20638;-76
2023/09/01 09:18:55;;;;;;;2.03;1.50;;;16.10;99.90;;;;;;6139724;23;20205;-74
2023/09/01 09:21:25;;;;;;;1.33;1.23;;;16.20;99.90;;;;;;6092180;23;20178;-75
2023/09/01 09:23:52;;;;;;;1.37;1.03;;;16.30;99.90;;;;;;6118843;23;20175;-77
2023/09/01 09:26:24;;;;;;;1.83;1.67;;;16.30;99.90;;;;;;6142612;23;20853;-76
2023/09/01 09:28:50;;;;;;;1.80;1.60;;;16.20;99.90;;;;;;6143618;23;20422;-77
2023/09/01 09:31:16;;;;;;;1.53;1.33;;;16.20;99.90;;;;;;6144149;23;20389;-74
2023/09/01 09:33:43;;;;;;;1.87;1.60;;;16.20;99.90;;;;;;6140381;23;20156;-76
2023/09/01 09:36:08;;;;;;;1.97;1.50;;;16.20;99.90;;;;;;6116831;23;20396;-75
2023/09/01 09:38:42;;;;;;;1.90;1.60;;;16.10;99.90;;;;;;6141766;23;20366;-77
2023/09/01 09:41:07;;;;;;;2.20;1.93;;;16.10;99.90;;;;;;6112578;23;20176;-75
2023/09/01 09:43:49;;;;;;;2.50;1.77;;;16.10;99.90;;;;;;6139352;23;20448;-74
2023/09/01 09:46:16;;;;;;;2.03;1.73;;;16.10;99.90;;;;;;6143994;23;20187;-77
2023/09/01 09:48:43;;;;;;;2.00;1.80;;;16.20;99.90;;;;;;6117297;23;20374;-75
2023/09/01 09:51:10;;;;;;;1.70;1.40;;;16.30;99.90;;;;;;6142652;23;20401;-76
2023/09/01 09:53:38;;;;;;;2.47;1.90;;;16.40;99.90;;;;;;6115070;23;20372;-79
2023/09/01 09:56:30;;;;;;;1.67;1.50;;;16.50;99.90;;;;;;6114564;23;20400;-76
2023/09/01 09:59:01;;;;;;;1.70;1.53;;;16.60;99.90;;;;;;6117445;23;20373;-77
2023/09/01 10:01:29;;;;;;;2.47;1.60;;;16.80;99.90;;;;;;6141336;23;20407;-75
2023/09/01 10:03:56;;;;;;;2.00;1.57;;;16.90;99.90;;;;;;6137064;23;20421;-78
2023/09/01 10:06:23;;;;;;;1.90;1.70;;;16.90;99.90;;;;;;6140376;23;20359;-78
2023/09/01 10:09:04;;;;;;;2.10;1.70;;;16.90;99.90;;;;;;6151476;23;20384;-82
2023/09/01 10:11:46;;;;;;;1.83;1.30;;;16.90;99.90;;;;;;6154728;23;20413;-81
2023/09/01 10:18:29;;;;;;;2.30;2.10;;;17.00;99.90;;;;;;6153405;23;20482;-82
2023/09/01 10:21:00;;;;;;;2.10;1.90;;;17.10;99.90;;;;;;6124157;23;20401;-84
2023/09/01 10:23:30;;;;;;;2.57;2.27;;;17.20;99.90;;;;;;6075968;23;20462;-82
2023/09/01 10:26:34;;;;;;;2.77;2.00;;;17.20;99.90;;;;;;6056592;23;20377;-83
2023/09/01 10:29:53;;;;;;;2.30;2.10;;;17.40;99.90;;;;;;6052774;23;20385;-81
2023/09/01 10:32:49;;;;;;;2.17;1.97;;;17.40;99.90;;;;;;6100984;23;20484;-83
2023/09/01 10:38:30;;;;;;;3.20;2.63;;;17.30;99.90;;;;;;6116912;23;20428;-82
2023/09/01 10:47:32;;;;;;;2.53;2.33;;;17.20;99.90;;;;;;6131210;23;20477;-81
2023/09/01 10:53:38;;;;;;;2.60;1.77;;;17.60;99.90;;;;;;6141228;23;20457;-83
2023/09/01 10:59:30;;;;;;;1.80;1.67;;;17.90;99.90;;;;;;6142509;23;20474;-75
2023/09/01 11:02:15;;;;;;;1.97;1.83;;;18.10;99.90;;;;;;6092211;23;20387;-78
2023/09/01 11:04:41;;;;;;;4.30;2.70;;;18.10;99.90;;;;;;6087807;23;20523;-78
2023/09/01 11:07:08;;;;;;;2.37;2.17;;;18.20;99.90;;;;;;6113144;23;20357;-75
2023/09/01 11:09:33;;;;;;;2.87;2.67;;;18.20;99.90;;;;;;6087206;23;20171;-76
2023/09/01 11:12:03;;;;;;;2.73;2.53;;;18.20;99.90;;;;;;6065677;23;20377;-76
2023/09/01 11:14:30;;;;;;;3.23;2.80;;;18.30;99.90;;;;;;6111520;23;20148;-77
2023/09/01 11:16:56;;;;;;;3.13;2.83;;;18.20;99.90;;;;;;6112015;23;20384;-78
2023/09/01 11:19:24;;;;;;;2.33;2.13;;;18.20;99.90;;;;;;6058182;23;20448;-75
2023/09/01 11:21:50;;;;;;;2.50;2.30;;;18.20;99.90;;;;;;6084225;23;20180;-75
2023/09/01 11:24:20;;;;;;;2.90;2.70;;;18.20;99.90;;;;;;6109254;23;20420;-75
2023/09/01 11:26:47;;;;;;;2.63;2.43;;;18.30;99.90;;;;;;6111939;23;20163;-77
2023/09/01 11:29:13;;;;;;;3.63;3.30;;;18.30;99.90;;;;;;6088491;23;20369;-76
2023/09/01 11:31:43;;;;;;;3.00;2.70;;;18.30;99.90;;;;;;6112629;23;20883;-75
2023/09/01 11:34:10;;;;;;;3.13;2.90;;;18.30;99.90;;;;;;6084860;23;20372;-75
2023/09/01 11:36:49;;;;;;;3.10;2.80;;;18.30;99.90;;;;;;6109883;23;20400;-78
2023/09/01 11:39:16;;;;;;;2.93;2.73;;;18.20;99.90;;;;;;6112651;23;20400;-76
2023/09/01 11:41:42;;;;;;;2.70;2.50;;;18.10;99.90;;;;;;6087849;23;20659;-76
2023/09/01 11:44:08;;;;;;;2.80;2.60;;;18.10;99.90;;;;;;6060082;23;20452;-76
2023/09/01 11:46:36;;;;;;;3.10;2.80;;;17.90;99.90;;;;;;6113374;23;20372;-73
2023/09/01 11:49:02;;;;;;;2.10;1.90;;;17.80;99.90;;;;;;6111937;23;20193;-75
2023/09/01 11:51:37;;;;;;;2.10;1.90;;;17.80;99.90;;;;;;6085921;23;20423;-78
2023/09/01 11:54:03;;;;;;;2.20;2.00;;;17.80;99.90;;;;;;6086846;23;20387;-76
2023/09/01 11:56:29;;;;;;;1.90;1.73;;;17.60;99.90;;;;;;6061151;23;20381;-78
2023/09/01 11:58:58;;;;;;;2.17;1.97;;;17.60;99.90;;;;;;6083940;23;20440;-74
2023/09/01 12:01:31;;;;;;;1.80;1.30;;;17.70;99.90;;;;;;6114251;23;20391;-79
2023/09/01 12:04:05;;;;;;;2.90;1.77;;;17.70;99.90;;;;;;6084130;23;20413;-75
2023/09/01 12:06:31;;;;;;;1.77;1.67;;;17.80;99.90;;;;;;6061518;23;20374;-75
2023/09/01 12:09:16;;;;;;;1.43;1.27;;;17.80;99.90;;;;;;6087099;23;20368;-78
2023/09/01 12:11:53;;;;;;;1.33;1.23;;;18.00;99.90;;;;;;6068010;23;20179;-76
2023/09/01 12:14:23;;;;;;;1.23;1.03;;;18.00;99.90;;;;;;6113205;23;20448;-77
2023/09/01 12:16:53;;;;;;;1.30;1.20;;;18.10;99.90;;;;;;6061113;23;20375;-73
2023/09/01 12:19:20;;;;;;;1.87;1.50;;;18.30;99.90;;;;;;6084133;23;20376;-77
2023/09/01 12:21:46;;;;;;;1.30;1.20;;;18.40;99.90;;;;;;6088215;23;20423;-77
2023/09/01 12:24:12;;;;;;;1.30;1.00;;;18.50;99.90;;;;;;6090102;23;20420;-78
2023/09/01 12:26:37;;;;;;;1.30;1.13;;;18.60;99.90;;;;;;6068994;23;20148;-75
2023/09/01 12:29:03;;;;;;;1.40;1.20;;;18.70;99.90;;;;;;6089864;23;20164;-76
2023/09/01 12:31:28;;;;;;;1.30;1.20;;;18.90;99.90;;;;;;6113865;23;20183;-76
2023/09/01 12:33:54;;;;;;;1.00;0.90;;;19.10;99.90;;;;;;6088530;23;20153;-77
2023/09/01 12:36:20;;;;;;;1.80;1.50;;;19.20;99.90;;;;;;6111874;23;20168;-75
2023/09/01 12:38:45;;;;;;;1.30;1.20;;;19.20;99.90;;;;;;6114796;23;20114;-76
2023/09/01 12:41:11;;;;;;;2.17;1.20;;;19.30;99.90;;;;;;6091627;23;20213;-77
2023/09/01 12:43:38;;;;;;;1.73;1.20;;;19.40;99.90;;;;;;6070571;23;20164;-80
2023/09/01 12:46:05;;;;;;;1.70;1.57;;;19.40;99.90;;;;;;6091881;23;20155;-79
2023/09/01 12:51:22;;;;;;;1.63;1.10;;;19.40;99.90;;;;;;6152212;23;20589;-79
2023/09/01 12:53:48;;;;;;;1.40;1.30;;;19.50;99.90;;;;;;6081410;23;20447;-80
2023/09/01 12:59:32;;;;;;;;;;;;;;;;;;;;;
2023/09/01 13:05:34;;;;;;;1.87;1.67;;;19.80;99.90;;;;;;6149755;23;20453;-79
2023/09/01 13:08:01;;;;;;;1.60;1.43;;;19.70;99.90;;;;;;6126392;23;20382;-75
2023/09/01 13:10:27;;;;;;;2.40;1.90;;;19.70;99.90;;;;;;6095876;23;20404;-75
2023/09/01 13:12:53;;;;;;;2.57;1.80;;;19.70;99.90;;;;;;6120075;23;20226;-78
2023/09/01 13:15:19;;;;;;;1.77;1.67;;;19.60;99.90;;;;;;6120320;23;20388;-77
2023/09/01 13:17:45;;;;;;;1.83;1.70;;;19.50;99.90;;;;;;6119248;23;20148;-75
2023/09/01 13:20:15;;;;;;;1.33;1.23;;;19.40;99.90;;;;;;6121062;23;20167;-77
2023/09/01 13:22:41;;;;;;;2.00;1.80;;;19.40;99.90;;;;;;6119525;23;20637;-77